Time;durP1;ratioP1;P1;durP2;ratioP2;P2;SDS_P1;SDS_P2;PMS_P1;PMS_P2;Temp;Humidity;BMP_temperature;BMP_pressure;BME280_temperature;BME280_humidity;BME280_pressure;Samples;Min_cycle;Max_cycle;Signal;HPM_P1;HPM_P2
2023/12/05 00:01:10;;;;;;;68.47;28.17;;;5.20;99.90;;;;;;5009275;28;20229;-59
2023/12/05 00:03:39;;;;;;;70.10;29.07;;;5.20;99.90;;;;;;5009052;28;20661;-60
2023/12/05 00:06:10;;;;;;;62.07;28.17;;;5.30;99.90;;;;;;4993123;28;20222;-60
2023/12/05 00:08:39;;;;;;;73.67;29.47;;;5.20;99.90;;;;;;5010235;28;20224;-60
2023/12/05 00:11:08;;;;;;;73.57;29.20;;;5.20;99.90;;;;;;5009805;28;20275;-59
2023/12/05 00:13:38;;;;;;;69.13;28.30;;;5.30;99.90;;;;;;5009016;28;20204;-60
2023/12/05 00:16:07;;;;;;;73.30;27.93;;;5.20;99.90;;;;;;5004459;28;20620;-59
2023/12/05 00:18:37;;;;;;;72.20;28.97;;;5.30;99.90;;;;;;5005788;28;20237;-60
2023/12/05 00:21:07;;;;;;;76.30;28.90;;;5.20;99.90;;;;;;5008796;28;20230;-60
2023/12/05 00:23:35;;;;;;;73.17;28.93;;;5.20;99.90;;;;;;5007803;28;20217;-59
2023/12/05 00:26:03;;;;;;;73.73;29.37;;;5.20;99.90;;;;;;5005146;28;20201;-59
2023/12/05 00:28:31;;;;;;;69.93;28.80;;;5.20;99.90;;;;;;5008197;28;20244;-59
2023/12/05 00:31:01;;;;;;;70.87;29.73;;;5.20;99.90;;;;;;5010194;28;21004;-59
2023/12/05 00:33:29;;;;;;;72.73;29.27;;;5.20;99.90;;;;;;5009377;28;20691;-60
2023/12/05 00:35:58;;;;;;;70.90;29.13;;;5.20;99.90;;;;;;5011381;28;20222;-60
2023/12/05 00:38:26;;;;;;;76.07;30.70;;;5.20;99.90;;;;;;5012631;28;20316;-59
2023/12/05 00:40:56;;;;;;;83.47;31.13;;;5.20;99.90;;;;;;5010313;28;20641;-59
2023/12/05 00:43:24;;;;;;;77.03;30.40;;;5.20;99.90;;;;;;5010054;28;20517;-59
2023/12/05 00:45:52;;;;;;;81.60;30.00;;;5.20;99.90;;;;;;5012090;28;20217;-60
2023/12/05 00:48:23;;;;;;;75.97;30.60;;;5.10;99.90;;;;;;5011208;28;20224;-60
2023/12/05 00:50:51;;;;;;;78.50;30.93;;;5.20;99.90;;;;;;5012123;28;20221;-60
2023/12/05 00:53:19;;;;;;;77.63;30.90;;;5.10;99.90;;;;;;5011868;28;20234;-59
2023/12/05 00:55:47;;;;;;;78.30;30.03;;;5.20;99.90;;;;;;5011658;28;20216;-60
2023/12/05 00:58:16;;;;;;;84.57;30.87;;;5.20;99.90;;;;;;5010122;28;20240;-60
2023/12/05 01:00:44;;;;;;;75.47;31.30;;;5.10;99.90;;;;;;5011977;28;20229;-60
2023/12/05 01:03:12;;;;;;;85.37;31.63;;;5.10;99.90;;;;;;5013239;28;20562;-60
2023/12/05 01:05:44;;;;;;;84.60;30.33;;;5.10;99.90;;;;;;5012192;28;20222;-60
2023/12/05 01:08:13;;;;;;;84.13;31.20;;;5.10;99.90;;;;;;5012292;28;20312;-60
2023/12/05 01:10:41;;;;;;;77.50;31.37;;;5.20;99.90;;;;;;5012257;28;20194;-60
2023/12/05 01:13:09;;;;;;;83.60;31.00;;;5.20;99.90;;;;;;5007280;28;20225;-60
2023/12/05 01:15:37;;;;;;;89.47;32.20;;;5.10;99.90;;;;;;5010937;28;20221;-59
2023/12/05 01:18:06;;;;;;;97.43;32.00;;;5.20;99.90;;;;;;5011777;28;20672;-60
2023/12/05 01:20:34;;;;;;;91.00;33.30;;;5.10;99.90;;;;;;5010560;28;20222;-59
2023/12/05 01:23:04;;;;;;;86.07;32.37;;;5.10;99.90;;;;;;5012791;28;20190;-60
2023/12/05 01:25:32;;;;;;;82.33;30.80;;;5.10;99.90;;;;;;5012628;28;20194;-60
2023/12/05 01:28:00;;;;;;;82.20;31.37;;;5.10;99.90;;;;;;5006744;28;20223;-60
2023/12/05 01:30:28;;;;;;;92.60;32.00;;;5.10;99.90;;;;;;5011394;28;20229;-60
2023/12/05 01:32:57;;;;;;;85.57;30.97;;;5.10;99.90;;;;;;5012307;28;20229;-59
2023/12/05 01:35:26;;;;;;;88.03;32.40;;;5.10;99.90;;;;;;5011190;28;20214;-59
2023/12/05 01:37:54;;;;;;;97.43;32.67;;;5.20;99.90;;;;;;5012356;28;20190;-60
2023/12/05 01:40:23;;;;;;;83.37;31.67;;;5.20;99.90;;;;;;5012623;28;20186;-59
2023/12/05 01:42:51;;;;;;;88.43;32.70;;;5.20;99.90;;;;;;5009611;28;20569;-59
2023/12/05 01:45:20;;;;;;;88.73;32.07;;;5.20;99.90;;;;;;5012308;28;20684;-59
2023/12/05 01:47:49;;;;;;;90.03;32.67;;;5.20;99.90;;;;;;5012682;28;20704;-60
2023/12/05 01:50:21;;;;;;;92.20;32.20;;;5.20;99.90;;;;;;5010713;28;20225;-60
2023/12/05 01:52:54;;;;;;;88.70;32.20;;;5.20;99.90;;;;;;5012724;28;20202;-60
2023/12/05 01:55:24;;;;;;;89.03;31.73;;;5.20;99.90;;;;;;5013944;28;20202;-60
2023/12/05 01:57:53;;;;;;;91.93;31.83;;;5.20;99.90;;;;;;5008769;28;20223;-59
2023/12/05 02:00:23;;;;;;;87.03;32.80;;;5.20;99.90;;;;;;5003602;28;20226;-60
2023/12/05 02:02:52;;;;;;;87.37;31.90;;;5.20;99.90;;;;;;5007566;28;20218;-60
2023/12/05 02:05:21;;;;;;;96.47;32.87;;;5.20;99.90;;;;;;5010150;28;20214;-59
2023/12/05 02:07:49;;;;;;;106.50;34.03;;;5.20;99.90;;;;;;5010804;28;20224;-58
2023/12/05 02:10:17;;;;;;;80.83;30.20;;;5.20;99.90;;;;;;5010887;28;20227;-59
2023/12/05 02:12:47;;;;;;;88.93;32.37;;;5.10;99.90;;;;;;5011715;28;20549;-60
2023/12/05 02:15:16;;;;;;;95.40;32.50;;;5.20;99.90;;;;;;5010583;28;20232;-60
2023/12/05 02:17:53;;;;;;;92.80;31.87;;;5.20;99.90;;;;;;5009980;28;20301;-59
2023/12/05 02:20:33;;;;;;;96.20;32.83;;;5.20;99.90;;;;;;5012823;28;20236;-59
2023/12/05 02:23:34;;;;;;;92.23;32.70;;;5.20;99.90;;;;;;5009559;28;20190;-60
2023/12/05 02:26:10;;;;;;;93.37;32.07;;;5.20;99.90;;;;;;4997937;28;20213;-59
2023/12/05 02:28:40;;;;;;;96.23;32.90;;;5.20;99.90;;;;;;4992634;28;20198;-60
2023/12/05 02:31:08;;;;;;;94.70;33.30;;;5.20;99.90;;;;;;5009502;28;20690;-59
2023/12/05 02:33:38;;;;;;;93.20;32.50;;;5.20;99.90;;;;;;5008408;28;20589;-60
2023/12/05 02:36:15;;;;;;;88.53;33.10;;;5.20;99.90;;;;;;5011461;28;20704;-59
2023/12/05 02:38:53;;;;;;;89.27;32.77;;;5.20;99.90;;;;;;5007876;28;20225;-60
2023/12/05 02:41:25;;;;;;;98.57;33.90;;;5.20;99.90;;;;;;5009058;28;20232;-59
2023/12/05 02:43:59;;;;;;;99.03;31.80;;;5.20;99.90;;;;;;5009656;28;20209;-59
2023/12/05 02:46:28;;;;;;;88.67;32.50;;;5.20;99.90;;;;;;4985113;28;20199;-59
2023/12/05 02:48:58;;;;;;;95.73;33.17;;;5.20;99.90;;;;;;5010579;28;20218;-59
2023/12/05 02:51:26;;;;;;;91.57;31.97;;;5.20;99.90;;;;;;5008824;28;20225;-59
2023/12/05 02:53:55;;;;;;;98.33;32.87;;;5.20;99.90;;;;;;5008620;28;20280;-60
2023/12/05 02:56:24;;;;;;;86.07;33.10;;;5.20;99.90;;;;;;5011475;28;20664;-59
2023/12/05 02:58:52;;;;;;;113.93;34.03;;;5.20;99.90;;;;;;5011063;28;20251;-59
2023/12/05 03:01:22;;;;;;;98.60;32.63;;;5.20;99.90;;;;;;5008452;28;20217;-59
2023/12/05 03:03:50;;;;;;;98.20;33.33;;;5.20;99.90;;;;;;5009266;28;20233;-59
2023/12/05 03:06:19;;;;;;;99.63;32.77;;;5.20;99.90;;;;;;5011424;28;20727;-59
2023/12/05 03:08:47;;;;;;;93.67;33.30;;;5.20;99.90;;;;;;5007910;28;20596;-60
2023/12/05 03:11:15;;;;;;;93.30;32.50;;;5.20;99.90;;;;;;5008382;28;20240;-59
2023/12/05 03:13:44;;;;;;;93.60;33.10;;;5.20;99.90;;;;;;5008251;28;20190;-60
2023/12/05 03:16:12;;;;;;;102.97;33.73;;;5.20;99.90;;;;;;5009174;28;20221;-59
2023/12/05 03:18:41;;;;;;;105.83;33.47;;;5.20;99.90;;;;;;5007189;28;20222;-59
2023/12/05 03:21:10;;;;;;;106.23;33.33;;;5.20;99.90;;;;;;5010733;28;20226;-59
2023/12/05 03:23:39;;;;;;;109.00;33.57;;;5.20;99.90;;;;;;5009105;28;20257;-59
2023/12/05 03:26:07;;;;;;;113.90;33.57;;;5.20;99.90;;;;;;5010871;28;20198;-59
2023/12/05 03:28:36;;;;;;;116.10;34.50;;;5.30;99.90;;;;;;5010400;28;20482;-60
2023/12/05 03:31:04;;;;;;;111.77;34.50;;;5.20;99.90;;;;;;5009608;28;20221;-59
2023/12/05 03:33:33;;;;;;;116.73;34.50;;;5.30;99.90;;;;;;5008068;28;20255;-60
2023/12/05 03:36:02;;;;;;;127.10;36.77;;;5.20;99.90;;;;;;5008889;28;20284;-60
2023/12/05 03:38:30;;;;;;;132.80;36.47;;;5.20;99.90;;;;;;5007947;28;20222;-60
2023/12/05 03:40:58;;;;;;;134.13;36.10;;;5.20;99.90;;;;;;5011362;28;20198;-59
2023/12/05 03:43:27;;;;;;;146.57;38.50;;;5.20;99.90;;;;;;5010334;28;20260;-60
2023/12/05 03:45:55;;;;;;;134.43;36.40;;;5.20;99.90;;;;;;5005801;28;20222;-60
2023/12/05 03:48:23;;;;;;;140.87;38.37;;;5.20;99.90;;;;;;5007458;28;20222;-60
2023/12/05 03:50:51;;;;;;;152.80;38.20;;;5.20;99.90;;;;;;5009758;28;20221;-60
2023/12/05 03:53:21;;;;;;;147.80;38.43;;;5.20;99.90;;;;;;5009196;28;20229;-59
2023/12/05 03:55:49;;;;;;;150.53;39.40;;;5.10;99.90;;;;;;5008240;28;20201;-59
2023/12/05 03:58:18;;;;;;;147.57;38.70;;;5.10;99.90;;;;;;5009145;28;20237;-60
2023/12/05 04:00:46;;;;;;;143.10;39.40;;;5.10;99.90;;;;;;5007723;28;20225;-59
2023/12/05 04:03:14;;;;;;;139.03;39.13;;;5.10;99.90;;;;;;5009350;28;20292;-60
2023/12/05 04:05:43;;;;;;;155.67;39.33;;;5.10;99.90;;;;;;5007516;28;20238;-59
2023/12/05 04:08:11;;;;;;;158.77;38.83;;;5.10;99.90;;;;;;5010093;28;20292;-59
2023/12/05 04:10:41;;;;;;;173.77;38.90;;;5.10;99.90;;;;;;5009674;28;20206;-60
2023/12/05 04:13:09;;;;;;;140.67;37.87;;;5.10;99.90;;;;;;5008949;28;20222;-60
2023/12/05 04:15:37;;;;;;;145.90;37.23;;;5.20;99.90;;;;;;5008997;28;20236;-59
2023/12/05 04:18:05;;;;;;;153.87;38.70;;;5.10;99.90;;;;;;4993060;28;20234;-59
2023/12/05 04:20:34;;;;;;;158.00;37.67;;;5.10;99.90;;;;;;5005989;28;20214;-60
2023/12/05 04:23:02;;;;;;;176.70;39.80;;;5.10;99.90;;;;;;5001592;28;20202;-60
2023/12/05 04:25:31;;;;;;;182.57;41.17;;;5.10;99.90;;;;;;5010836;28;20514;-59
2023/12/05 04:28:00;;;;;;;176.43;41.03;;;5.10;99.90;;;;;;5008749;28;20222;-60
2023/12/05 04:30:28;;;;;;;162.97;39.50;;;5.10;99.90;;;;;;5009774;28;20225;-60
2023/12/05 04:32:57;;;;;;;172.80;40.03;;;5.10;99.90;;;;;;5007668;28;20852;-59
2023/12/05 04:35:25;;;;;;;172.20;40.40;;;5.10;99.90;;;;;;5009175;28;20276;-59
2023/12/05 04:37:53;;;;;;;185.43;40.63;;;5.10;99.90;;;;;;5008955;28;20190;-60
2023/12/05 04:40:21;;;;;;;173.53;36.97;;;5.10;99.90;;;;;;5009601;28;20190;-60
2023/12/05 04:42:50;;;;;;;169.40;38.90;;;5.10;99.90;;;;;;5009438;28;20318;-60
2023/12/05 04:45:20;;;;;;;172.13;38.90;;;5.10;99.90;;;;;;5008813;28;20214;-60
2023/12/05 04:47:48;;;;;;;161.57;38.80;;;5.00;99.90;;;;;;5007154;28;20314;-59
2023/12/05 04:50:16;;;;;;;180.23;39.80;;;5.00;99.90;;;;;;5008916;28;20221;-60
2023/12/05 04:52:44;;;;;;;167.43;39.27;;;5.00;99.90;;;;;;5005834;28;20197;-59
2023/12/05 04:55:13;;;;;;;190.93;39.30;;;5.00;99.90;;;;;;5008660;28;20221;-59
2023/12/05 04:57:41;;;;;;;160.53;37.77;;;5.00;99.90;;;;;;5006390;28;20712;-59
2023/12/05 05:00:12;;;;;;;183.57;39.50;;;5.00;99.90;;;;;;5008297;28;20628;-60
2023/12/05 05:02:42;;;;;;;152.03;36.47;;;5.00;99.90;;;;;;5006835;28;20249;-59
2023/12/05 05:05:13;;;;;;;179.50;37.80;;;5.00;99.90;;;;;;5009459;28;20253;-59
2023/12/05 05:07:42;;;;;;;182.20;39.20;;;5.00;99.90;;;;;;5008512;28;20213;-60
2023/12/05 05:10:10;;;;;;;214.47;40.60;;;5.00;99.90;;;;;;5004921;28;20722;-60
2023/12/05 05:12:38;;;;;;;228.80;41.43;;;4.90;99.90;;;;;;5008210;28;20688;-59
2023/12/05 05:15:09;;;;;;;210.53;41.97;;;4.90;99.90;;;;;;5007873;28;20831;-60
2023/12/05 05:17:37;;;;;;;202.30;43.10;;;4.90;99.90;;;;;;5009335;28;20221;-59
2023/12/05 05:20:08;;;;;;;214.60;42.23;;;4.80;99.90;;;;;;5010733;28;20240;-60
2023/12/05 05:22:37;;;;;;;240.53;44.43;;;4.80;99.90;;;;;;5011262;28;20297;-59
2023/12/05 05:25:06;;;;;;;270.03;46.73;;;4.80;99.90;;;;;;5013730;28;20217;-60
2023/12/05 05:27:34;;;;;;;305.50;47.23;;;4.80;99.90;;;;;;5009227;28;20229;-59
2023/12/05 05:30:03;;;;;;;288.13;48.90;;;4.80;99.90;;;;;;5012283;28;20308;-59
2023/12/05 05:32:31;;;;;;;328.37;50.40;;;4.80;99.90;;;;;;5008967;28;20313;-59
2023/12/05 05:34:59;;;;;;;332.90;49.40;;;4.80;99.90;;;;;;5012588;28;20564;-59
2023/12/05 05:37:29;;;;;;;309.33;48.47;;;4.70;99.90;;;;;;5010225;28;20209;-60
2023/12/05 05:39:57;;;;;;;277.63;47.90;;;4.70;99.90;;;;;;5011588;28;20232;-60
2023/12/05 05:42:26;;;;;;;400.63;50.33;;;4.70;99.90;;;;;;5011197;28;20218;-59
2023/12/05 05:44:54;;;;;;;302.27;46.03;;;4.70;99.90;;;;;;5011445;28;20684;-60
2023/12/05 05:47:22;;;;;;;250.80;46.37;;;4.70;99.90;;;;;;4991659;28;20218;-60
2023/12/05 05:49:50;;;;;;;314.70;47.03;;;4.60;99.90;;;;;;5011560;28;20202;-60
2023/12/05 05:52:19;;;;;;;316.90;46.50;;;4.60;99.90;;;;;;5012660;28;20206;-60
2023/12/05 05:54:50;;;;;;;353.40;48.73;;;4.60;99.90;;;;;;5010141;28;20221;-60
2023/12/05 05:57:18;;;;;;;268.17;45.23;;;4.60;99.90;;;;;;5011629;28;20593;-60
2023/12/05 05:59:47;;;;;;;297.97;45.97;;;4.60;99.90;;;;;;5011652;28;20764;-59
2023/12/05 06:02:16;;;;;;;317.77;46.30;;;4.60;99.90;;;;;;5009564;28;20701;-60
2023/12/05 06:04:44;;;;;;;328.43;45.60;;;4.60;99.90;;;;;;5011899;28;20241;-59
2023/12/05 06:07:12;;;;;;;251.63;43.10;;;4.60;99.90;;;;;;5010596;28;20257;-60
2023/12/05 06:09:42;;;;;;;318.67;43.70;;;4.60;99.90;;;;;;5010641;28;20249;-60
2023/12/05 06:12:12;;;;;;;278.43;43.33;;;4.60;99.90;;;;;;5010133;28;20226;-59
2023/12/05 06:14:40;;;;;;;237.77;41.47;;;4.60;99.90;;;;;;5010932;28;20712;-59
2023/12/05 06:17:08;;;;;;;326.60;43.57;;;4.60;99.90;;;;;;5006401;28;20731;-59
2023/12/05 06:19:37;;;;;;;230.40;40.83;;;4.60;99.90;;;;;;5011565;28;20217;-59
2023/12/05 06:22:05;;;;;;;253.77;43.33;;;4.60;99.90;;;;;;5009200;28;20720;-59
2023/12/05 06:24:33;;;;;;;208.47;38.87;;;4.60;99.90;;;;;;5009291;28;20224;-60
2023/12/05 06:27:01;;;;;;;237.53;42.53;;;4.60;99.90;;;;;;5007826;28;20222;-60
2023/12/05 06:29:32;;;;;;;222.90;39.53;;;4.60;99.90;;;;;;5009140;28;20538;-59
2023/12/05 06:32:00;;;;;;;205.77;37.87;;;4.60;99.90;;;;;;5007340;28;20202;-60
2023/12/05 06:34:28;;;;;;;186.07;37.33;;;4.60;99.90;;;;;;5006739;28;20190;-60
2023/12/05 06:37:00;;;;;;;196.10;38.03;;;4.60;99.90;;;;;;5009744;28;20222;-59
2023/12/05 06:39:28;;;;;;;197.27;38.33;;;4.60;99.90;;;;;;5010314;28;20218;-60
2023/12/05 06:41:57;;;;;;;179.93;37.47;;;4.60;99.90;;;;;;5008499;28;20305;-59
2023/12/05 06:44:25;;;;;;;205.07;41.27;;;4.60;99.90;;;;;;5008124;28;20233;-60
2023/12/05 06:46:55;;;;;;;221.80;42.87;;;4.60;99.90;;;;;;5008158;28;20190;-60
2023/12/05 06:49:23;;;;;;;207.07;41.40;;;4.50;99.90;;;;;;5010997;28;20358;-60
2023/12/05 06:51:56;;;;;;;216.17;42.07;;;4.50;99.90;;;;;;5010351;28;20218;-59
2023/12/05 06:54:25;;;;;;;227.93;42.00;;;4.50;99.90;;;;;;5008443;28;20233;-60
2023/12/05 06:56:53;;;;;;;197.70;42.03;;;4.50;99.90;;;;;;5009239;28;20975;-59
2023/12/05 06:59:21;;;;;;;205.43;42.57;;;4.50;99.90;;;;;;5007685;28;20584;-60
2023/12/05 07:01:50;;;;;;;244.23;44.33;;;4.50;99.90;;;;;;5009055;28;20244;-58
2023/12/05 07:04:20;;;;;;;207.00;43.23;;;4.50;99.90;;;;;;5009540;28;20218;-60
2023/12/05 07:06:49;;;;;;;218.70;44.30;;;4.40;99.90;;;;;;5008864;28;20217;-60
2023/12/05 07:09:18;;;;;;;232.87;44.40;;;4.40;99.90;;;;;;5008249;28;20738;-59
2023/12/05 07:11:47;;;;;;;203.40;43.90;;;4.40;99.90;;;;;;5009285;28;20291;-59
2023/12/05 07:14:15;;;;;;;211.23;43.73;;;4.40;99.90;;;;;;4988301;28;20230;-59
2023/12/05 07:16:45;;;;;;;192.57;41.53;;;4.40;99.90;;;;;;5007268;28;20290;-59
2023/12/05 07:19:13;;;;;;;197.73;39.97;;;4.40;99.90;;;;;;5010484;28;20244;-58
2023/12/05 07:21:43;;;;;;;157.60;38.27;;;4.40;99.90;;;;;;5010751;28;20214;-59
2023/12/05 07:24:11;;;;;;;148.03;35.57;;;4.40;99.90;;;;;;5008312;28;20222;-59
2023/12/05 07:26:40;;;;;;;128.70;33.43;;;4.40;99.90;;;;;;5011176;28;20232;-58
2023/12/05 07:29:08;;;;;;;133.00;35.67;;;4.30;99.90;;;;;;5010424;28;20194;-59
2023/12/05 07:31:37;;;;;;;146.93;36.97;;;4.30;99.90;;;;;;5009358;28;20194;-58
2023/12/05 07:34:05;;;;;;;138.53;36.93;;;4.30;99.90;;;;;;5009990;28;20217;-59
2023/12/05 07:36:33;;;;;;;150.23;36.13;;;4.30;99.90;;;;;;5007090;28;20684;-59
2023/12/05 07:39:03;;;;;;;129.57;34.90;;;4.30;99.90;;;;;;5009477;28;20222;-59
2023/12/05 07:41:31;;;;;;;119.47;33.70;;;4.30;99.90;;;;;;5010044;28;20214;-59
2023/12/05 07:44:00;;;;;;;123.03;33.80;;;4.30;99.90;;;;;;5008742;28;20213;-58
2023/12/05 07:46:28;;;;;;;119.53;32.97;;;4.30;99.90;;;;;;5011053;28;20193;-59
2023/12/05 07:48:56;;;;;;;108.93;30.90;;;4.30;99.90;;;;;;4993021;28;20241;-58
2023/12/05 07:51:24;;;;;;;112.80;30.13;;;4.30;99.90;;;;;;5007425;28;20222;-59
2023/12/05 07:53:54;;;;;;;106.03;29.77;;;4.30;99.90;;;;;;5009678;28;21032;-60
2023/12/05 07:56:24;;;;;;;107.70;30.87;;;4.20;99.90;;;;;;5012989;28;20242;-59
2023/12/05 07:58:52;;;;;;;109.43;30.80;;;4.20;99.90;;;;;;4971864;28;20191;-59
2023/12/05 08:01:23;;;;;;;107.73;30.77;;;4.20;99.90;;;;;;4967754;28;20578;-59
2023/12/05 08:03:51;;;;;;;110.80;31.00;;;4.20;99.90;;;;;;4972661;28;20690;-59
2023/12/05 08:06:19;;;;;;;92.27;27.87;;;4.20;99.90;;;;;;4970725;28;20215;-59
2023/12/05 08:08:48;;;;;;;92.00;28.07;;;4.20;99.90;;;;;;4972306;28;20223;-59
2023/12/05 08:11:16;;;;;;;83.70;26.93;;;4.20;99.90;;;;;;4972529;28;20223;-59
2023/12/05 08:13:47;;;;;;;89.07;27.37;;;4.20;99.90;;;;;;4971723;28;20593;-59
2023/12/05 08:16:15;;;;;;;78.73;25.30;;;4.30;99.90;;;;;;4970119;28;20318;-59
2023/12/05 08:18:44;;;;;;;85.77;25.00;;;4.20;99.90;;;;;;4971927;28;20219;-59
2023/12/05 08:21:14;;;;;;;84.40;25.40;;;4.20;99.90;;;;;;4971839;28;20262;-59
2023/12/05 08:23:42;;;;;;;80.97;25.60;;;4.30;99.90;;;;;;4971288;28;20263;-59
2023/12/05 08:26:11;;;;;;;71.03;23.60;;;4.30;99.90;;;;;;4971420;28;20241;-59
2023/12/05 08:28:41;;;;;;;73.20;23.43;;;4.30;99.90;;;;;;4972290;28;20221;-59
2023/12/05 08:31:11;;;;;;;69.00;23.23;;;4.30;99.90;;;;;;4971992;28;20230;-59
2023/12/05 08:33:39;;;;;;;78.30;23.93;;;4.30;99.90;;;;;;4986225;28;20215;-59
2023/12/05 08:36:08;;;;;;;71.93;23.67;;;4.30;99.90;;;;;;4968719;28;20227;-59
2023/12/05 08:38:37;;;;;;;73.17;23.70;;;4.40;99.90;;;;;;4969055;28;20274;-59
2023/12/05 08:41:05;;;;;;;84.73;27.03;;;4.40;99.90;;;;;;4971171;28;20192;-59
2023/12/05 08:43:33;;;;;;;88.53;26.53;;;4.40;99.90;;;;;;4971987;28;20191;-59
2023/12/05 08:46:02;;;;;;;87.87;27.33;;;4.40;99.90;;;;;;4968229;28;20314;-59
2023/12/05 08:48:32;;;;;;;92.63;28.57;;;4.40;99.90;;;;;;4968784;28;20224;-59
2023/12/05 08:51:01;;;;;;;98.33;28.40;;;4.40;99.90;;;;;;4969481;28;20226;-59
2023/12/05 08:53:29;;;;;;;101.10;28.50;;;4.40;99.90;;;;;;4971438;28;20651;-59
2023/12/05 08:55:57;;;;;;;95.37;28.13;;;4.50;99.90;;;;;;4972965;28;20195;-58
2023/12/05 08:58:26;;;;;;;93.50;27.23;;;4.40;99.90;;;;;;4990217;28;20689;-59
2023/12/05 09:00:54;;;;;;;99.37;28.90;;;4.40;99.90;;;;;;4993840;28;20322;-59
2023/12/05 09:03:23;;;;;;;90.77;27.57;;;4.40;99.90;;;;;;4994526;28;20267;-59
2023/12/05 09:05:53;;;;;;;96.03;28.03;;;4.40;99.90;;;;;;4992308;28;20231;-59
2023/12/05 09:08:21;;;;;;;105.60;28.27;;;4.40;99.90;;;;;;4989988;28;20229;-59
2023/12/05 09:10:50;;;;;;;92.17;27.80;;;4.40;99.90;;;;;;4993388;28;20541;-58
2023/12/05 09:13:18;;;;;;;103.53;27.30;;;4.40;99.90;;;;;;4992010;28;20219;-59
2023/12/05 09:15:46;;;;;;;115.97;28.90;;;4.40;99.90;;;;;;4992910;28;20313;-59
2023/12/05 09:18:14;;;;;;;114.97;29.40;;;4.40;99.90;;;;;;4992698;28;20233;-59
2023/12/05 09:20:43;;;;;;;113.00;30.03;;;4.40;99.90;;;;;;4991734;28;20238;-59
2023/12/05 09:23:12;;;;;;;110.77;29.27;;;4.50;99.90;;;;;;4992902;28;20230;-59
2023/12/05 09:25:41;;;;;;;128.90;31.50;;;4.40;99.90;;;;;;4993537;28;20211;-60
2023/12/05 09:28:09;;;;;;;125.67;31.53;;;4.40;99.90;;;;;;4992150;28;20241;-59
2023/12/05 09:30:38;;;;;;;125.00;30.20;;;4.40;99.90;;;;;;4994353;28;20222;-59
2023/12/05 09:33:06;;;;;;;132.63;31.07;;;4.50;99.90;;;;;;4992067;28;20317;-59
2023/12/05 09:35:35;;;;;;;129.30;31.00;;;4.40;99.90;;;;;;4994090;28;20222;-59
2023/12/05 09:38:04;;;;;;;120.97;29.13;;;4.40;99.90;;;;;;4991570;28;20817;-59
2023/12/05 09:40:35;;;;;;;128.23;30.10;;;4.40;99.90;;;;;;4993622;28;20198;-59
2023/12/05 09:43:05;;;;;;;122.00;30.67;;;4.40;99.90;;;;;;4992668;28;20226;-59
2023/12/05 09:45:39;;;;;;;122.33;29.60;;;4.40;99.90;;;;;;4992055;28;20272;-59
2023/12/05 09:48:09;;;;;;;119.00;28.80;;;4.40;99.90;;;;;;5008656;28;20885;-59
2023/12/05 09:50:38;;;;;;;108.97;27.90;;;4.40;99.90;;;;;;4984402;28;20229;-59
2023/12/05 09:53:09;;;;;;;109.80;29.13;;;4.40;99.90;;;;;;4994558;28;20650;-59
2023/12/05 09:55:40;;;;;;;113.43;28.67;;;4.50;99.90;;;;;;4996099;28;20249;-59
2023/12/05 09:58:12;;;;;;;120.53;29.37;;;4.50;99.90;;;;;;5007033;28;20242;-59
2023/12/05 10:00:40;;;;;;;118.20;28.80;;;4.50;99.90;;;;;;5013223;28;20332;-59
2023/12/05 10:03:10;;;;;;;124.30;30.63;;;4.50;99.90;;;;;;5011695;28;20225;-59
2023/12/05 10:05:42;;;;;;;132.20;31.30;;;4.50;99.90;;;;;;4994343;28;20230;-59
2023/12/05 10:08:12;;;;;;;133.97;32.73;;;4.50;99.90;;;;;;5011932;28;20234;-59
2023/12/05 10:10:46;;;;;;;122.07;29.30;;;4.50;99.90;;;;;;4995415;28;20210;-59
2023/12/05 10:13:18;;;;;;;128.53;31.70;;;4.50;99.90;;;;;;5010448;28;20590;-59
2023/12/05 10:15:47;;;;;;;143.27;33.60;;;4.50;99.90;;;;;;5011052;28;20225;-59
2023/12/05 10:18:15;;;;;;;150.70;33.40;;;4.50;99.90;;;;;;4987705;28;20242;-59
2023/12/05 10:20:45;;;;;;;127.03;31.37;;;4.50;99.90;;;;;;5012775;28;20221;-59
2023/12/05 10:23:14;;;;;;;129.47;30.30;;;4.50;99.90;;;;;;5012469;28;20241;-59
2023/12/05 10:25:44;;;;;;;132.50;31.83;;;4.50;99.90;;;;;;5012997;28;20329;-59
2023/12/05 10:28:12;;;;;;;128.83;31.70;;;4.50;99.90;;;;;;5010408;28;20221;-59
2023/12/05 10:30:44;;;;;;;130.53;31.77;;;4.50;99.90;;;;;;5010378;28;20222;-60
2023/12/05 10:33:14;;;;;;;132.40;31.97;;;4.50;99.90;;;;;;5010983;28;20229;-59
2023/12/05 10:35:44;;;;;;;130.27;32.17;;;4.50;99.90;;;;;;5011336;28;20222;-59
2023/12/05 10:38:14;;;;;;;121.97;30.23;;;4.50;99.90;;;;;;5009871;28;20217;-59
2023/12/05 10:40:54;;;;;;;114.40;30.97;;;4.50;99.90;;;;;;5013045;28;20265;-59
2023/12/05 10:43:24;;;;;;;135.17;30.80;;;4.50;99.90;;;;;;5011908;28;20218;-59
2023/12/05 10:45:53;;;;;;;118.97;31.70;;;4.50;99.90;;;;;;5011089;28;20554;-59
2023/12/05 10:48:23;;;;;;;136.97;33.87;;;4.50;99.90;;;;;;5011694;28;20389;-59
2023/12/05 10:50:52;;;;;;;127.43;33.07;;;4.50;99.90;;;;;;5010955;28;20214;-59
2023/12/05 10:53:20;;;;;;;139.93;32.03;;;4.50;99.90;;;;;;5011074;28;20229;-59
2023/12/05 10:55:49;;;;;;;113.80;31.87;;;4.50;99.90;;;;;;5011506;28;20194;-59
2023/12/05 10:58:20;;;;;;;136.00;32.13;;;4.60;99.90;;;;;;5012891;28;20225;-59
2023/12/05 11:00:49;;;;;;;129.63;32.47;;;4.60;99.90;;;;;;5011897;28;20232;-60
2023/12/05 11:03:17;;;;;;;136.17;31.63;;;4.60;99.90;;;;;;5012002;28;20305;-59
2023/12/05 11:05:46;;;;;;;117.33;30.23;;;4.60;99.90;;;;;;5011004;28;20386;-59
2023/12/05 11:08:15;;;;;;;93.53;28.30;;;4.60;99.90;;;;;;5011063;28;20225;-59
2023/12/05 11:10:43;;;;;;;103.27;27.87;;;4.60;99.90;;;;;;5011503;28;20197;-59
2023/12/05 11:13:13;;;;;;;93.50;27.73;;;4.60;99.90;;;;;;5010601;28;20242;-59
2023/12/05 11:15:45;;;;;;;101.73;27.43;;;4.60;99.90;;;;;;5010150;28;20284;-60
2023/12/05 11:18:21;;;;;;;98.40;28.50;;;4.60;99.90;;;;;;5010841;28;20247;-59
2023/12/05 11:20:59;;;;;;;111.17;30.90;;;4.60;99.90;;;;;;5011408;28;20222;-59
2023/12/05 11:23:48;;;;;;;115.37;30.80;;;4.60;99.90;;;;;;5011486;28;20221;-60
2023/12/05 11:26:33;;;;;;;111.53;31.13;;;4.60;99.90;;;;;;4991958;28;20230;-59
2023/12/05 11:29:29;;;;;;;118.93;33.27;;;4.60;99.90;;;;;;5010392;28;20229;-60
2023/12/05 11:32:09;;;;;;;115.20;32.70;;;4.60;99.90;;;;;;5009800;28;20197;-59
2023/12/05 11:34:55;;;;;;;108.63;31.87;;;4.60;99.90;;;;;;5011394;28;20292;-60
2023/12/05 11:37:36;;;;;;;118.57;33.60;;;4.60;99.90;;;;;;5010438;28;20622;-60
2023/12/05 11:40:05;;;;;;;116.50;31.90;;;4.70;99.90;;;;;;5004235;28;20695;-59
2023/12/05 11:42:34;;;;;;;111.27;31.80;;;4.70;99.90;;;;;;5008406;28;20259;-60
2023/12/05 11:45:21;;;;;;;116.87;32.63;;;4.80;99.90;;;;;;5008350;28;20234;-59
2023/12/05 11:47:51;;;;;;;93.93;29.80;;;4.70;99.90;;;;;;5010325;28;20763;-59
2023/12/05 11:50:20;;;;;;;103.77;31.97;;;4.70;99.90;;;;;;5011385;28;20228;-59
2023/12/05 11:52:50;;;;;;;108.30;32.07;;;4.70;99.90;;;;;;5010126;28;20710;-60
2023/12/05 11:55:18;;;;;;;99.20;32.20;;;4.80;99.90;;;;;;5011451;28;20266;-60
2023/12/05 11:57:47;;;;;;;102.20;31.70;;;4.80;99.90;;;;;;5010335;28;20236;-60
2023/12/05 12:00:15;;;;;;;102.23;33.30;;;4.80;99.90;;;;;;5010963;28;20253;-59
2023/12/05 12:02:48;;;;;;;103.87;33.37;;;4.80;99.90;;;;;;5009215;28;21036;-59
2023/12/05 12:05:21;;;;;;;100.47;33.73;;;4.80;99.90;;;;;;5007685;28;20240;-59
2023/12/05 12:07:56;;;;;;;108.10;33.40;;;4.70;99.90;;;;;;5009468;28;20202;-59
2023/12/05 12:10:26;;;;;;;106.20;33.57;;;4.80;99.90;;;;;;5009970;28;20205;-59
2023/12/05 12:12:55;;;;;;;109.70;33.50;;;4.70;99.90;;;;;;5007654;28;20260;-60
2023/12/05 12:15:25;;;;;;;111.03;33.47;;;4.80;99.90;;;;;;5009125;28;20222;-60
2023/12/05 12:17:55;;;;;;;112.53;33.57;;;4.70;99.90;;;;;;5009305;28;20779;-60
2023/12/05 12:20:25;;;;;;;104.33;34.07;;;4.70;99.90;;;;;;5009255;28;20604;-60
2023/12/05 12:22:54;;;;;;;105.27;32.70;;;4.70;99.90;;;;;;5010605;28;20194;-59
2023/12/05 12:25:24;;;;;;;103.37;33.87;;;4.70;99.90;;;;;;5011399;28;20648;-60
2023/12/05 12:27:52;;;;;;;99.87;33.00;;;4.70;99.90;;;;;;5010737;28;20668;-60
2023/12/05 12:30:20;;;;;;;114.67;35.20;;;4.70;99.90;;;;;;5013473;28;20217;-60
2023/12/05 12:32:56;;;;;;;104.93;35.37;;;4.70;99.90;;;;;;5014873;28;20222;-59
2023/12/05 12:35:29;;;;;;;111.43;35.60;;;4.70;99.90;;;;;;5014408;28;20275;-60
2023/12/05 12:37:58;;;;;;;114.80;36.47;;;4.70;99.90;;;;;;5014473;28;20190;-59
2023/12/05 12:40:26;;;;;;;120.90;36.40;;;4.70;99.90;;;;;;5013103;28;20198;-60
2023/12/05 12:42:55;;;;;;;108.80;35.13;;;4.80;99.90;;;;;;5012856;28;20229;-59